El Maiten, Argentina
Current Conditions -  °F | °C
As of 11:00 PM on Friday 19 Dec 2014 (Local Time) from SAZS Reporting Station
Rain Showers Rain Showers  
Wind Chill: 28°   Ceiling: 2000
Heat Index: 39°   Visibility: 6mi
Dew Point: 30°   Wind: 25mph
Humidity: 70%   Direction: 320°NW
Pressure: 29.8"   Gusts: NA
Location:  42.05°S, 71.17°W
Report Text: SAZS 200200Z 32022KT 9999 VCSH BKN020SCT040 04/M01 Q1009 RESHRA
Loading
Personal Weather Stations






























Interactive Weather Map New forecast layout! Learn more

10-Day Weather Forecast

Advertisements
Track Severe Weather on mobile